createdAt,value
2023-05-19T00:02:33.741Z,99869.56
2023-05-19T00:05:40.781Z,99863.06
2023-05-19T00:08:43.114Z,99862.44
2023-05-19T00:11:45.674Z,99857.75
2023-05-19T00:14:48.155Z,99851.50
2023-05-19T00:17:52.402Z,99853.31
2023-05-19T00:20:54.690Z,99857.63
2023-05-19T00:23:57.545Z,99859.13
2023-05-19T00:26:59.798Z,99857.03
2023-05-19T00:30:02.104Z,99864.22
2023-05-19T00:33:04.383Z,99860.53
2023-05-19T00:36:07.106Z,99854.00
2023-05-19T00:39:09.341Z,99858.16
2023-05-19T00:42:11.677Z,99859.38
2023-05-19T00:45:13.896Z,99860.16
2023-05-19T00:48:16.140Z,99844.75
2023-05-19T00:51:18.612Z,99849.22
2023-05-19T00:54:21.353Z,99851.97
2023-05-19T00:57:23.888Z,99848.75
2023-05-19T01:00:26.130Z,99845.88
2023-05-19T01:03:31.127Z,99845.66
2023-05-19T01:06:33.613Z,99838.06
2023-05-19T01:09:36.244Z,99832.75
2023-05-19T01:12:39.907Z,99831.66
2023-05-19T01:16:13.181Z,99822.12
2023-05-19T01:19:51.086Z,99829.44
2023-05-19T01:23:21.497Z,99821.88
2023-05-19T01:26:53.924Z,99815.00
2023-05-19T01:30:23.386Z,99826.66
2023-05-19T01:33:27.357Z,99827.59
2023-05-19T01:36:31.978Z,99822.22
2023-05-19T01:39:35.030Z,99823.88
2023-05-19T01:42:40.036Z,99821.06
2023-05-19T01:45:42.775Z,99827.91
2023-05-19T01:48:45.519Z,99830.16
2023-05-19T01:51:50.036Z,99826.66
2023-05-19T01:54:52.258Z,99827.75
2023-05-19T01:57:57.457Z,99827.34
2023-05-19T02:01:11.648Z,99818.75
2023-05-19T02:04:18.542Z,99825.37
2023-05-19T02:07:42.840Z,99833.91
2023-05-19T02:10:53.543Z,99835.13
2023-05-19T02:13:57.022Z,99833.09
2023-05-19T02:16:59.800Z,99839.50
2023-05-19T02:20:04.594Z,99840.13
2023-05-19T02:23:07.149Z,99836.66
2023-05-19T02:26:09.448Z,99840.97
2023-05-19T02:29:12.152Z,99845.06
2023-05-19T02:32:15.014Z,99837.25
2023-05-19T02:35:17.670Z,99850.59
2023-05-19T02:38:19.973Z,99842.22
2023-05-19T02:41:22.261Z,99840.56
2023-05-19T02:44:24.527Z,99838.41
2023-05-19T02:47:26.759Z,99827.13
2023-05-19T02:50:28.976Z,99834.72
2023-05-19T02:53:32.363Z,99831.44
2023-05-19T02:56:34.654Z,99833.34
2023-05-19T02:59:37.351Z,99827.16
2023-05-19T03:02:39.937Z,99830.06
2023-05-19T03:05:42.695Z,99831.09
2023-05-19T03:08:45.121Z,99828.88
2023-05-19T03:11:47.339Z,99832.38
2023-05-19T03:14:49.653Z,99831.69
2023-05-19T03:17:52.057Z,99834.72
2023-05-19T03:20:54.296Z,99821.00
2023-05-19T03:23:56.638Z,99830.00
2023-05-19T03:26:58.875Z,99830.63
2023-05-19T03:30:01.218Z,99837.88
2023-05-19T03:33:03.651Z,99844.66
2023-05-19T03:36:06.483Z,99846.09
2023-05-19T03:39:09.481Z,99841.41
2023-05-19T03:42:11.713Z,99839.25
2023-05-19T03:45:14.272Z,99845.38
2023-05-19T03:48:17.950Z,99842.75
2023-05-19T03:51:21.597Z,99840.06
2023-05-19T03:54:23.856Z,99842.41
2023-05-19T03:57:26.188Z,99850.22
2023-05-19T04:00:28.470Z,99845.47
2023-05-19T04:03:30.835Z,99850.19
2023-05-19T04:06:33.972Z,99853.06
2023-05-19T04:09:37.689Z,99851.81
2023-05-19T04:12:40.054Z,99857.88
2023-05-19T04:15:42.410Z,99845.00
2023-05-19T04:18:46.413Z,99856.06
2023-05-19T04:21:48.824Z,99861.00
2023-05-19T04:24:52.346Z,99865.06
2023-05-19T04:27:57.728Z,99858.09
2023-05-19T04:31:00.337Z,99860.97
2023-05-19T04:34:02.683Z,99864.47
2023-05-19T04:37:07.126Z,99862.50
2023-05-19T04:40:11.186Z,99869.22
2023-05-19T04:43:13.479Z,99870.87
2023-05-19T04:46:15.742Z,99876.25
2023-05-19T04:49:19.237Z,99877.31
2023-05-19T04:52:22.264Z,99876.31
2023-05-19T04:55:24.490Z,99879.19
2023-05-19T04:58:27.566Z,99877.56
2023-05-19T05:01:31.380Z,99879.63
2023-05-19T05:04:33.893Z,99884.75
2023-05-19T05:07:36.540Z,99886.75
2023-05-19T05:10:38.928Z,99889.94
2023-05-19T05:13:41.439Z,99892.59
2023-05-19T05:16:44.114Z,99881.59
2023-05-19T05:19:47.071Z,99892.19
2023-05-19T05:22:49.611Z,99891.41
2023-05-19T05:25:52.040Z,99896.38
2023-05-19T05:28:54.280Z,99897.97
2023-05-19T05:31:56.510Z,99898.31
2023-05-19T05:34:59.021Z,99894.97
2023-05-19T05:38:01.829Z,99895.16
2023-05-19T05:41:04.220Z,99893.16
2023-05-19T05:44:06.583Z,99899.38
2023-05-19T05:47:09.160Z,99903.31
2023-05-19T05:50:13.270Z,99902.75
2023-05-19T05:53:19.397Z,99899.84
2023-05-19T05:56:22.174Z,99905.09
2023-05-19T05:59:24.481Z,99911.97
2023-05-19T06:02:28.280Z,99903.91
2023-05-19T06:05:30.751Z,99908.16
2023-05-19T06:08:33.103Z,99906.03
2023-05-19T06:11:35.348Z,99902.06
2023-05-19T06:14:37.672Z,99907.25
2023-05-19T06:17:40.030Z,99908.81
2023-05-19T06:20:42.313Z,99916.44
2023-05-19T06:23:44.605Z,99914.75
2023-05-19T06:26:46.799Z,99923.25
2023-05-19T06:29:49.133Z,99922.44
2023-05-19T06:32:51.551Z,99926.63
2023-05-19T06:35:53.939Z,99934.03
2023-05-19T06:38:56.365Z,99924.91
2023-05-19T06:41:58.636Z,99932.19
2023-05-19T06:45:00.857Z,99937.22
2023-05-19T06:48:03.567Z,99937.12
2023-05-19T06:51:05.918Z,99934.44
2023-05-19T06:54:11.041Z,99945.88
2023-05-19T06:57:13.301Z,99948.34
2023-05-19T07:00:19.274Z,99945.41
2023-05-19T07:03:22.855Z,99952.19
2023-05-19T07:06:25.134Z,99958.50
2023-05-19T07:09:27.364Z,99943.91
2023-05-19T07:12:29.601Z,99949.63
2023-05-19T07:15:31.870Z,99961.50
2023-05-19T07:18:34.027Z,99953.19
2023-05-19T07:21:36.307Z,99959.59
2023-05-19T07:24:38.527Z,99948.00
2023-05-19T07:27:40.909Z,99947.63
2023-05-19T07:30:43.349Z,99945.66
2023-05-19T07:33:45.583Z,99949.88
2023-05-19T07:36:47.903Z,99952.28
2023-05-19T07:39:50.209Z,99948.81
2023-05-19T07:42:52.461Z,99943.91
2023-05-19T07:45:56.379Z,99944.84
2023-05-19T07:48:58.709Z,99941.69
2023-05-19T07:52:01.287Z,99938.38
2023-05-19T07:55:03.703Z,99942.88
2023-05-19T07:58:05.994Z,99946.69
2023-05-19T08:01:08.248Z,99933.72
2023-05-19T08:04:12.813Z,99937.34
2023-05-19T08:07:15.671Z,99937.09
2023-05-19T08:10:18.114Z,99935.97
2023-05-19T08:13:20.343Z,99936.94
2023-05-19T08:16:22.942Z,99939.37
2023-05-19T08:19:25.446Z,99931.25
2023-05-19T08:22:28.176Z,99935.97
2023-05-19T08:25:30.426Z,99934.56
2023-05-19T08:28:32.829Z,99931.06
2023-05-19T08:31:35.119Z,99936.06
2023-05-19T08:34:37.525Z,99939.13
2023-05-19T08:37:39.890Z,99940.03
2023-05-19T08:40:43.098Z,99943.72
2023-05-19T08:43:45.564Z,99933.50
2023-05-19T08:46:48.255Z,99930.88
2023-05-19T08:49:53.028Z,99930.72
2023-05-19T08:53:05.770Z,99932.63
2023-05-19T08:56:14.909Z,99939.97
2023-05-19T08:59:17.506Z,99928.69
2023-05-19T09:02:19.860Z,99926.53
2023-05-19T09:05:22.476Z,99930.75
2023-05-19T09:08:24.771Z,99932.91
2023-05-19T09:11:27.552Z,99933.66
2023-05-19T09:14:30.804Z,99939.16
2023-05-19T09:17:34.054Z,99934.25
2023-05-19T09:20:46.021Z,99933.63
2023-05-19T09:23:49.681Z,99932.06
2023-05-19T09:26:51.875Z,99926.78
2023-05-19T09:29:54.151Z,99922.75
2023-05-19T09:32:56.512Z,99919.94
2023-05-19T09:35:58.785Z,99919.78
2023-05-19T09:39:00.976Z,99922.75
2023-05-19T09:42:04.793Z,99926.13
2023-05-19T09:45:09.320Z,99923.00
2023-05-19T09:48:11.650Z,99915.72
2023-05-19T09:51:13.896Z,99910.09
2023-05-19T09:54:18.709Z,99908.38
2023-05-19T09:57:26.067Z,99911.91
2023-05-19T10:00:29.570Z,99908.00
2023-05-19T10:03:33.047Z,99907.59
2023-05-19T10:06:35.895Z,99901.94
2023-05-19T10:09:38.245Z,99906.38
2023-05-19T10:12:41.583Z,99909.19
2023-05-19T10:15:57.475Z,99900.59
2023-05-19T10:19:02.111Z,99899.88
2023-05-19T10:22:05.099Z,99897.50
2023-05-19T10:25:08.383Z,99887.75
2023-05-19T10:28:15.203Z,99895.31
2023-05-19T10:31:19.606Z,99886.47
2023-05-19T10:34:40.628Z,99892.56
2023-05-19T10:37:59.455Z,99881.88
2023-05-19T10:41:22.581Z,99876.41
2023-05-19T10:44:53.264Z,99872.06
2023-05-19T10:47:56.133Z,99871.34
2023-05-19T10:50:58.567Z,99872.19
2023-05-19T10:54:10.455Z,99867.62
2023-05-19T10:57:17.505Z,99870.84
2023-05-19T11:00:30.315Z,99863.25
2023-05-19T11:03:44.615Z,99861.56
2023-05-19T11:06:51.773Z,99854.81
2023-05-19T11:09:54.251Z,99857.53
2023-05-19T11:12:58.315Z,99851.94
2023-05-19T11:16:08.218Z,99855.56
2023-05-19T11:19:20.899Z,99844.66
2023-05-19T11:22:27.352Z,99844.81
2023-05-19T11:25:43.382Z,99852.91
2023-05-19T11:28:47.684Z,99853.38
2023-05-19T11:31:50.051Z,99846.16
2023-05-19T11:34:53.226Z,99853.56
2023-05-19T11:37:55.756Z,99852.84
2023-05-19T11:40:58.063Z,99845.56
2023-05-19T11:44:00.325Z,99848.66
2023-05-19T11:47:02.594Z,99843.97
2023-05-19T11:50:05.110Z,99843.19
2023-05-19T11:53:07.858Z,99837.09
2023-05-19T11:56:11.819Z,99841.22
2023-05-19T11:59:14.149Z,99838.63
2023-05-19T12:02:21.890Z,99842.66
2023-05-19T12:05:25.388Z,99840.56
2023-05-19T12:08:27.778Z,99836.38
2023-05-19T12:11:31.778Z,99839.44
2023-05-19T12:14:34.545Z,99843.91
2023-05-19T12:17:36.813Z,99836.47
2023-05-19T12:20:39.291Z,99830.97
2023-05-19T12:23:42.423Z,99832.09
2023-05-19T12:26:44.682Z,99828.59
2023-05-19T12:29:53.602Z,99817.56
2023-05-19T12:32:59.382Z,99824.13
2023-05-19T12:36:01.733Z,99821.03
2023-05-19T12:39:05.064Z,99814.62
2023-05-19T12:42:12.513Z,99816.88
2023-05-19T12:45:15.326Z,99803.03
2023-05-19T12:48:18.128Z,99806.97
2023-05-19T12:51:20.541Z,99813.72
2023-05-19T12:54:23.103Z,99799.84
2023-05-19T12:57:26.746Z,99798.81
2023-05-19T13:00:31.282Z,99788.53
2023-05-19T13:03:40.070Z,99794.66
2023-05-19T13:06:43.812Z,99786.81
2023-05-19T13:09:46.106Z,99800.72
2023-05-19T13:12:48.326Z,99791.78
2023-05-19T13:15:50.726Z,99791.28
2023-05-19T13:18:53.577Z,99798.09
2023-05-19T13:21:55.840Z,99776.84
2023-05-19T13:25:02.291Z,99778.03
2023-05-19T13:28:08.005Z,99777.72
2023-05-19T13:31:10.382Z,99770.34
2023-05-19T13:34:12.619Z,99770.56
2023-05-19T13:37:14.831Z,99767.06
2023-05-19T13:40:17.686Z,99772.53
2023-05-19T13:43:19.940Z,99764.13
2023-05-19T13:46:29.508Z,99758.75
2023-05-19T13:49:39.396Z,99763.53
2023-05-19T13:52:41.805Z,99750.13
2023-05-19T13:55:44.023Z,99747.38
2023-05-19T13:58:46.837Z,99738.72
2023-05-19T14:01:49.056Z,99742.50
2023-05-19T14:04:51.425Z,99740.63
2023-05-19T14:07:54.489Z,99737.13
2023-05-19T14:10:57.157Z,99740.88
2023-05-19T14:13:59.472Z,99737.62
2023-05-19T14:17:01.654Z,99740.88
2023-05-19T14:20:04.566Z,99737.66
2023-05-19T14:23:06.794Z,99746.41
2023-05-19T14:26:09.041Z,99743.06
2023-05-19T14:29:11.615Z,99739.22
2023-05-19T14:32:13.943Z,99744.59
2023-05-19T14:35:16.266Z,99741.41
2023-05-19T14:38:18.619Z,99732.25
2023-05-19T14:41:21.593Z,99735.75
2023-05-19T14:44:23.771Z,99734.94
2023-05-19T14:47:27.073Z,99730.59
2023-05-19T14:50:29.685Z,99740.88
2023-05-19T14:53:32.003Z,99732.53
2023-05-19T14:56:34.241Z,99730.06
2023-05-19T14:59:39.674Z,99733.81
2023-05-19T15:02:42.037Z,99727.34
2023-05-19T15:05:45.432Z,99723.03
2023-05-19T15:08:47.657Z,99729.81
2023-05-19T15:11:49.873Z,99723.28
2023-05-19T15:14:52.167Z,99715.44
2023-05-19T15:17:54.423Z,99715.44
2023-05-19T15:20:56.761Z,99717.34
2023-05-19T15:23:58.983Z,99709.22
2023-05-19T15:27:01.803Z,99709.75
2023-05-19T15:30:05.234Z,99696.50
2023-05-19T15:33:07.506Z,99711.63
2023-05-19T15:36:11.244Z,99712.19
2023-05-19T15:39:13.673Z,99706.81
2023-05-19T15:42:15.946Z,99704.63
2023-05-19T15:45:18.165Z,99710.31
2023-05-19T15:48:20.765Z,99704.06
2023-05-19T15:51:23.313Z,99697.28
2023-05-19T15:54:25.663Z,99705.97
2023-05-19T15:57:27.866Z,99707.84
2023-05-19T16:00:30.130Z,99697.28
2023-05-19T16:03:32.598Z,99702.44
2023-05-19T16:06:34.898Z,99712.22
2023-05-19T16:09:37.123Z,99712.47
2023-05-19T16:12:39.448Z,99711.37
2023-05-19T16:15:41.909Z,99711.37
2023-05-19T16:18:44.615Z,99714.09
2023-05-19T16:21:46.928Z,99713.81
2023-05-19T16:24:49.166Z,99722.19
2023-05-19T16:27:52.400Z,99719.75
2023-05-19T16:31:00.842Z,99726.47
2023-05-19T16:34:03.117Z,99721.91
2023-05-19T16:37:05.394Z,99733.78
2023-05-19T16:40:08.358Z,99728.91
2023-05-19T16:43:10.985Z,99724.31
2023-05-19T16:46:13.300Z,99731.88
2023-05-19T16:49:15.703Z,99724.56
2023-05-19T16:52:17.952Z,99724.25
2023-05-19T16:55:20.587Z,99718.50
2023-05-19T16:58:22.869Z,99721.66
2023-05-19T17:01:25.186Z,99711.37
2023-05-19T17:04:29.392Z,99709.16
2023-05-19T17:07:32.927Z,99714.56
2023-05-19T17:10:36.052Z,99724.25
2023-05-19T17:13:38.328Z,99715.28
2023-05-19T17:16:40.709Z,99722.47
2023-05-19T17:19:42.918Z,99714.59
2023-05-19T17:22:45.143Z,99721.03
2023-05-19T17:25:47.820Z,99715.03
2023-05-19T17:28:50.065Z,99717.88
2023-05-19T17:31:52.316Z,99718.41
2023-05-19T17:34:54.640Z,99713.78
2023-05-19T17:37:58.600Z,99725.84
2023-05-19T17:41:02.560Z,99723.88
2023-05-19T17:44:06.773Z,99721.03
2023-05-19T17:47:09.139Z,99721.97
2023-05-19T17:50:11.513Z,99728.06
2023-05-19T17:53:15.150Z,99725.56
2023-05-19T17:56:17.510Z,99722.94
2023-05-19T17:59:19.898Z,99725.13
2023-05-19T18:02:22.462Z,99722.75
2023-05-19T18:05:25.228Z,99716.16
2023-05-19T18:08:28.773Z,99723.47
2023-05-19T18:11:30.972Z,99724.72
2023-05-19T18:14:33.204Z,99720.38
2023-05-19T18:17:35.525Z,99728.53
2023-05-19T18:20:38.789Z,99722.41
2023-05-19T18:23:41.545Z,99726.09
2023-05-19T18:26:43.827Z,99727.19
2023-05-19T18:29:46.124Z,99734.28
2023-05-19T18:32:48.385Z,99731.22
2023-05-19T18:35:50.721Z,99736.59
2023-05-19T18:38:53.278Z,99734.37
2023-05-19T18:41:55.512Z,99729.84
2023-05-19T18:44:57.741Z,99733.00
2023-05-19T18:47:59.980Z,99741.84
2023-05-19T18:51:03.852Z,99745.72
2023-05-19T18:54:07.707Z,99747.56
2023-05-19T18:57:09.991Z,99744.53
2023-05-19T19:00:13.653Z,99740.44
2023-05-19T19:03:15.942Z,99740.13
2023-05-19T19:06:20.904Z,99741.13
2023-05-19T19:09:23.210Z,99745.22
2023-05-19T19:12:25.458Z,99741.91
2023-05-19T19:15:28.442Z,99741.66
2023-05-19T19:18:31.155Z,99746.91
2023-05-19T19:21:33.544Z,99745.50
2023-05-19T19:24:35.891Z,99748.44
2023-05-19T19:27:38.179Z,99752.47
2023-05-19T19:30:40.485Z,99759.38
2023-05-19T19:33:43.690Z,99757.84
2023-05-19T19:36:47.976Z,99755.06
2023-05-19T19:39:50.440Z,99761.94
2023-05-19T19:42:53.139Z,99771.34
2023-05-19T19:46:02.966Z,99767.59
2023-05-19T19:49:05.325Z,99771.53
2023-05-19T19:52:07.714Z,99770.16
2023-05-19T19:55:10.374Z,99779.09
2023-05-19T19:58:12.905Z,99776.47
2023-05-19T20:01:16.101Z,99778.66
2023-05-19T20:04:18.551Z,99786.75
2023-05-19T20:07:23.244Z,99783.34
2023-05-19T20:10:25.619Z,99786.28
2023-05-19T20:13:28.578Z,99788.34
2023-05-19T20:16:32.009Z,99793.06
2023-05-19T20:19:34.443Z,99788.75
2023-05-19T20:22:37.057Z,99782.56
2023-05-19T20:25:57.859Z,99781.97
2023-05-19T20:29:05.065Z,99771.22
2023-05-19T20:32:07.356Z,99782.56
2023-05-19T20:35:10.376Z,99772.69
2023-05-19T20:38:12.692Z,99773.94
2023-05-19T20:41:15.044Z,99769.72
2023-05-19T20:44:20.721Z,99772.09
2023-05-19T20:47:23.091Z,99769.19
2023-05-19T20:50:25.628Z,99769.88
2023-05-19T20:53:27.896Z,99767.22
2023-05-19T20:56:30.109Z,99770.16
2023-05-19T20:59:32.951Z,99772.41
2023-05-19T21:02:35.354Z,99775.22
2023-05-19T21:05:37.685Z,99775.81
2023-05-19T21:08:39.938Z,99765.53
2023-05-19T21:11:42.199Z,99766.44
2023-05-19T21:14:44.416Z,99766.13
2023-05-19T21:17:46.823Z,99769.62
2023-05-19T21:20:49.132Z,99764.81
2023-05-19T21:23:51.495Z,99768.09
2023-05-19T21:26:53.776Z,99766.72
2023-05-19T21:29:56.056Z,99769.75
2023-05-19T21:32:58.656Z,99772.25
2023-05-19T21:36:01.279Z,99769.84
2023-05-19T21:39:04.711Z,99773.34
2023-05-19T21:42:10.528Z,99771.94
2023-05-19T21:45:12.852Z,99773.25
2023-05-19T21:48:19.341Z,99764.81
2023-05-19T21:51:21.626Z,99765.84
2023-05-19T21:54:23.871Z,99771.13
2023-05-19T21:57:26.158Z,99775.97
2023-05-19T22:00:28.885Z,99775.00
2023-05-19T22:03:31.236Z,99777.94
2023-05-19T22:06:33.716Z,99786.31
2023-05-19T22:09:35.989Z,99785.50
2023-05-19T22:12:38.300Z,99763.78
2023-05-19T22:15:41.401Z,99763.09
2023-05-19T22:18:43.689Z,99755.19
2023-05-19T22:21:46.005Z,99761.34
2023-05-19T22:24:48.676Z,99754.97
2023-05-19T22:27:50.927Z,99757.03
2023-05-19T22:30:53.157Z,99750.63
2023-05-19T22:33:56.054Z,99746.66
2023-05-19T22:36:58.370Z,99746.88
2023-05-19T22:40:00.691Z,99750.50
2023-05-19T22:43:02.979Z,99745.16
2023-05-19T22:46:05.464Z,99735.66
2023-05-19T22:49:07.930Z,99731.63
2023-05-19T22:52:11.079Z,99736.41
2023-05-19T22:55:13.380Z,99731.72
2023-05-19T22:58:15.636Z,99727.19
2023-05-19T23:01:18.708Z,99716.94
2023-05-19T23:04:21.067Z,99716.97
2023-05-19T23:07:23.317Z,99718.13
2023-05-19T23:10:25.556Z,99715.62
2023-05-19T23:13:28.037Z,99719.06
2023-05-19T23:16:30.284Z,99710.66
2023-05-19T23:19:33.277Z,99715.69
2023-05-19T23:22:35.502Z,99721.22
2023-05-19T23:25:37.719Z,99721.25
2023-05-19T23:28:42.024Z,99715.66
2023-05-19T23:31:44.532Z,99716.47
2023-05-19T23:34:48.020Z,99716.25
2023-05-19T23:37:50.352Z,99717.09
2023-05-19T23:40:52.526Z,99723.56
2023-05-19T23:43:54.715Z,99722.56
2023-05-19T23:46:56.972Z,99717.22
2023-05-19T23:49:59.152Z,99713.84
2023-05-19T23:53:01.438Z,99716.75
2023-05-19T23:56:03.694Z,99718.25
2023-05-19T23:59:06.043Z,99712.31
